Time;durP1;ratioP1;P1;durP2;ratioP2;P2;SDS_P1;SDS_P2;PMS_P1;PMS_P2;Temp;Humidity;BMP_temperature;BMP_pressure;BME280_temperature;BME280_humidity;BME280_pressure;Samples;Min_cycle;Max_cycle;Signal;HPM_P1;HPM_P2
2022/09/26 00:01:25;;;;;;;0.80;0.80;;;19.00;54.30;;;;;;5067347;28;45471;-73
2022/09/26 00:03:53;;;;;;;1.13;1.05;;;18.90;54.20;;;;;;5067077;28;47372;-73
2022/09/26 00:06:20;;;;;;;0.90;0.90;;;18.90;54.30;;;;;;5067165;28;45249;-73
2022/09/26 00:08:47;;;;;;;1.15;1.10;;;19.00;54.20;;;;;;5067194;28;45249;-73
2022/09/26 00:11:18;;;;;;;1.00;1.00;;;18.90;54.30;;;;;;5067077;28;45517;-73
2022/09/26 00:13:44;;;;;;;1.00;1.00;;;18.90;54.20;;;;;;5066730;28;46475;-73
2022/09/26 00:16:12;;;;;;;0.90;0.90;;;18.90;54.20;;;;;;5066820;28;45261;-73
2022/09/26 00:18:38;;;;;;;1.00;1.00;;;18.90;54.30;;;;;;5066735;28;45139;-73
2022/09/26 00:21:06;;;;;;;1.00;1.00;;;18.90;54.20;;;;;;5067163;28;45163;-73
2022/09/26 00:23:33;;;;;;;1.27;1.17;;;18.90;54.20;;;;;;5066741;28;45492;-73
2022/09/26 00:26:00;;;;;;;1.20;1.10;;;18.90;54.30;;;;;;5066836;28;45385;-73
2022/09/26 00:28:28;;;;;;;1.20;1.10;;;18.90;54.30;;;;;;5066936;28;45348;-73
2022/09/26 00:30:55;;;;;;;1.67;1.10;;;18.90;54.30;;;;;;5067160;28;45187;-73
2022/09/26 00:33:22;;;;;;;0.82;0.82;;;18.90;54.30;;;;;;5066569;28;46696;-73
2022/09/26 00:35:50;;;;;;;0.93;0.93;;;18.80;54.30;;;;;;5066529;28;45251;-73
2022/09/26 00:38:18;;;;;;;0.90;0.90;;;18.80;54.30;;;;;;5066831;28;45288;-73
2022/09/26 00:40:45;;;;;;;1.10;1.00;;;18.80;54.30;;;;;;5067044;28;45129;-73
2022/09/26 00:43:28;;;;;;;0.90;0.90;;;18.80;54.30;;;;;;5065898;28;46380;-73
2022/09/26 00:45:55;;;;;;;0.98;0.98;;;18.80;54.30;;;;;;5066519;28;45201;-73
2022/09/26 00:48:21;;;;;;;1.10;0.98;;;18.80;54.30;;;;;;5066515;28;45225;-73
2022/09/26 00:50:48;;;;;;;1.10;1.00;;;18.80;54.30;;;;;;5066785;28;45472;-74
2022/09/26 00:53:16;;;;;;;1.00;1.00;;;18.80;54.30;;;;;;5065897;28;46496;-74
2022/09/26 00:55:44;;;;;;;1.25;1.15;;;18.80;54.30;;;;;;5066610;28;45361;-74
2022/09/26 00:58:14;;;;;;;1.20;1.20;;;18.80;54.30;;;;;;5066674;28;45239;-73
2022/09/26 01:00:42;;;;;;;0.80;0.80;;;18.80;54.30;;;;;;5066672;28;45405;-74
2022/09/26 01:03:09;;;;;;;1.33;1.20;;;18.80;54.30;;;;;;5066328;28;45512;-73
2022/09/26 01:05:36;;;;;;;1.00;1.00;;;18.80;54.30;;;;;;5066264;28;45284;-73
2022/09/26 01:08:03;;;;;;;0.90;0.90;;;18.80;54.30;;;;;;5066351;28;45282;-74
2022/09/26 01:10:30;;;;;;;1.20;1.10;;;18.80;54.30;;;;;;5065818;28;45345;-74
2022/09/26 01:12:57;;;;;;;1.00;1.00;;;18.80;54.30;;;;;;5066000;28;45241;-73
2022/09/26 01:15:24;;;;;;;1.25;1.10;;;18.80;54.30;;;;;;5066237;28;45161;-73
2022/09/26 01:17:52;;;;;;;0.90;0.90;;;18.80;54.30;;;;;;5066142;28;45202;-73
2022/09/26 01:20:26;;;;;;;1.08;1.08;;;18.80;54.30;;;;;;5066398;28;45312;-74
2022/09/26 01:23:41;;;;;;;0.77;0.77;;;18.80;54.30;;;;;;5065927;28;46305;-74
2022/09/26 01:26:33;;;;;;;0.90;0.90;;;18.80;54.30;;;;;;5045416;28;45294;-74
2022/09/26 01:29:42;;;;;;;1.10;1.00;;;18.80;54.30;;;;;;5045989;28;45199;-74
2022/09/26 01:35:02;;;;;;;1.00;1.00;;;18.80;54.40;;;;;;5047325;28;45235;-74
2022/09/26 01:37:31;;;;;;;0.90;0.90;;;18.80;54.40;;;;;;5066135;28;45465;-74
2022/09/26 01:40:03;;;;;;;0.95;0.95;;;18.70;54.30;;;;;;5066051;28;45463;-74
2022/09/26 01:42:37;;;;;;;1.13;1.08;;;18.80;54.40;;;;;;5066266;28;45257;-74
2022/09/26 01:45:07;;;;;;;1.02;1.02;;;18.70;54.40;;;;;;5065625;28;46398;-74
2022/09/26 01:47:38;;;;;;;1.27;1.05;;;18.70;54.40;;;;;;5065638;28;45213;-73
2022/09/26 01:50:06;;;;;;;0.90;0.90;;;18.70;54.40;;;;;;5065454;28;45276;-73
2022/09/26 01:52:35;;;;;;;0.88;0.88;;;18.70;55.00;;;;;;5065558;28;45530;-74
2022/09/26 01:55:06;;;;;;;1.10;1.00;;;18.70;54.40;;;;;;5066468;28;45468;-74
2022/09/26 01:57:37;;;;;;;1.73;1.10;;;18.70;54.30;;;;;;5069234;28;45320;-74
2022/09/26 02:00:06;;;;;;;1.20;1.10;;;18.70;54.30;;;;;;5069342;28;45216;-74
2022/09/26 02:02:34;;;;;;;1.20;1.00;;;18.70;54.30;;;;;;5069199;28;45544;-73
2022/09/26 02:05:05;;;;;;;1.10;1.00;;;18.70;54.30;;;;;;5068481;28;45470;-73
2022/09/26 02:07:35;;;;;;;0.82;0.82;;;18.70;54.30;;;;;;5068997;28;45261;-74
2022/09/26 02:10:04;;;;;;;1.10;1.00;;;18.70;54.40;;;;;;5068735;28;45193;-74
2022/09/26 02:12:32;;;;;;;1.88;1.10;;;18.70;54.30;;;;;;5048579;28;45422;-74
2022/09/26 02:15:01;;;;;;;0.90;0.90;;;18.70;54.30;;;;;;5048836;28;45415;-74
2022/09/26 02:17:29;;;;;;;1.08;0.95;;;18.70;54.30;;;;;;5049066;28;45175;-74
2022/09/26 02:19:57;;;;;;;1.10;1.10;;;18.70;54.40;;;;;;5049088;28;45233;-74
2022/09/26 02:22:25;;;;;;;1.20;1.08;;;18.70;54.30;;;;;;5049176;28;45271;-74
2022/09/26 02:24:53;;;;;;;1.02;1.02;;;18.70;54.30;;;;;;5048715;28;46552;-74
2022/09/26 02:27:19;;;;;;;1.25;1.15;;;18.70;54.30;;;;;;5048843;28;45267;-74
2022/09/26 02:29:46;;;;;;;0.98;0.98;;;18.70;54.30;;;;;;5048940;28;45323;-74
2022/09/26 02:32:15;;;;;;;1.20;1.00;;;18.70;54.30;;;;;;5049102;28;45289;-73
2022/09/26 02:34:42;;;;;;;1.08;1.08;;;18.80;54.40;;;;;;5048470;28;46413;-73
2022/09/26 02:37:09;;;;;;;1.67;1.10;;;18.70;54.30;;;;;;5047906;28;45134;-73
2022/09/26 02:39:37;;;;;;;1.00;1.00;;;18.70;54.30;;;;;;5048631;28;45321;-73
2022/09/26 02:42:09;;;;;;;1.10;0.80;;;18.70;54.30;;;;;;5048493;28;45242;-73
2022/09/26 02:44:46;;;;;;;0.98;0.98;;;18.70;54.30;;;;;;5048418;28;47561;-73
2022/09/26 02:47:31;;;;;;;1.10;1.10;;;18.70;54.30;;;;;;5048265;28;45237;-73
2022/09/26 02:50:17;;;;;;;1.02;1.02;;;18.70;54.30;;;;;;5040490;28;45467;-74
2022/09/26 02:52:48;;;;;;;0.75;0.75;;;18.70;54.30;;;;;;5048871;28;45463;-74
2022/09/26 02:55:20;;;;;;;0.98;0.98;;;18.70;54.30;;;;;;5048214;28;46424;-74
2022/09/26 02:57:52;;;;;;;1.00;1.00;;;18.70;54.30;;;;;;5048378;28;45261;-74
2022/09/26 03:00:20;;;;;;;1.10;1.00;;;18.70;54.30;;;;;;5048445;28;45320;-74
2022/09/26 03:02:50;;;;;;;0.90;0.90;;;18.70;54.30;;;;;;5048601;28;45259;-74
2022/09/26 03:05:19;;;;;;;0.88;0.88;;;18.70;54.30;;;;;;5047687;28;46618;-74
2022/09/26 03:07:46;;;;;;;1.20;1.10;;;18.70;54.30;;;;;;5048304;28;45197;-74
2022/09/26 03:10:13;;;;;;;1.10;1.00;;;18.70;54.30;;;;;;5049312;28;45284;-73
2022/09/26 03:12:43;;;;;;;0.90;0.90;;;18.70;54.30;;;;;;5068276;28;45318;-73
2022/09/26 03:15:10;;;;;;;0.80;0.80;;;18.70;54.30;;;;;;5067364;28;45391;-74
2022/09/26 03:17:37;;;;;;;0.90;0.90;;;18.70;54.30;;;;;;5068262;28;45194;-74
2022/09/26 03:20:06;;;;;;;0.90;0.90;;;18.70;54.30;;;;;;5068337;28;45226;-74
2022/09/26 03:22:33;;;;;;;1.20;1.10;;;18.70;54.30;;;;;;5068396;28;45456;-74
2022/09/26 03:25:00;;;;;;;1.10;1.00;;;18.70;54.30;;;;;;5068000;28;46458;-74
2022/09/26 03:27:27;;;;;;;1.60;1.13;;;18.70;54.30;;;;;;5068093;28;45260;-73
2022/09/26 03:29:56;;;;;;;1.35;1.25;;;18.60;54.30;;;;;;5068140;28;45207;-73
2022/09/26 03:32:22;;;;;;;0.80;0.80;;;18.70;54.40;;;;;;5068252;28;45361;-73
2022/09/26 03:34:50;;;;;;;0.93;0.93;;;18.60;54.30;;;;;;5067632;28;46415;-73
2022/09/26 03:37:17;;;;;;;1.13;1.00;;;18.70;54.40;;;;;;5067868;28;45211;-74
2022/09/26 03:39:44;;;;;;;1.13;1.02;;;18.70;54.30;;;;;;5065365;28;45177;-74
2022/09/26 03:42:13;;;;;;;1.15;1.05;;;18.60;54.30;;;;;;5068174;28;45442;-74
2022/09/26 03:44:40;;;;;;;0.90;0.90;;;18.60;54.30;;;;;;5067912;28;46419;-73
2022/09/26 03:47:08;;;;;;;0.93;0.90;;;18.70;54.40;;;;;;5067767;28;45173;-73
2022/09/26 03:49:35;;;;;;;0.90;0.90;;;18.60;54.40;;;;;;5065296;28;45293;-73
2022/09/26 03:52:02;;;;;;;1.02;1.02;;;18.60;54.40;;;;;;5067917;28;45362;-73
2022/09/26 03:54:29;;;;;;;1.02;1.02;;;18.70;54.50;;;;;;5067536;28;45264;-73
2022/09/26 03:56:55;;;;;;;0.80;0.80;;;18.60;54.40;;;;;;5067866;28;45211;-73
2022/09/26 03:59:22;;;;;;;1.83;1.13;;;18.60;54.40;;;;;;5066887;28;45229;-74
2022/09/26 04:01:50;;;;;;;1.15;1.10;;;18.60;54.50;;;;;;5067687;28;45111;-73
2022/09/26 04:04:18;;;;;;;0.93;0.82;;;18.60;54.50;;;;;;5067388;28;46857;-73
2022/09/26 04:06:45;;;;;;;0.80;0.80;;;18.60;54.50;;;;;;5067472;28;45439;-72
2022/09/26 04:09:12;;;;;;;0.80;0.80;;;18.60;54.50;;;;;;5067621;28;45185;-73
2022/09/26 04:11:39;;;;;;;1.83;1.05;;;18.60;54.50;;;;;;5067374;28;45329;-73
2022/09/26 04:14:05;;;;;;;1.42;1.05;;;18.60;54.60;;;;;;5067292;28;45457;-73
2022/09/26 04:16:32;;;;;;;0.88;0.88;;;18.60;54.50;;;;;;5067260;28;45401;-72
2022/09/26 04:18:59;;;;;;;1.02;0.93;;;18.60;54.50;;;;;;5065617;28;45268;-72
2022/09/26 04:21:28;;;;;;;1.08;1.00;;;18.60;54.50;;;;;;5066782;28;45166;-72
2022/09/26 04:23:55;;;;;;;0.77;0.77;;;18.60;54.50;;;;;;5066256;28;45248;-73
2022/09/26 04:26:22;;;;;;;1.20;1.10;;;18.60;54.60;;;;;;5063801;28;45241;-74
2022/09/26 04:28:49;;;;;;;0.80;0.80;;;18.50;54.50;;;;;;5067100;28;45269;-73
2022/09/26 04:31:16;;;;;;;0.93;0.93;;;18.60;54.50;;;;;;5067160;28;45227;-73
2022/09/26 04:33:44;;;;;;;0.70;0.70;;;18.60;54.60;;;;;;5066576;28;46748;-73
2022/09/26 04:36:12;;;;;;;0.82;0.82;;;18.60;54.60;;;;;;5066736;28;45134;-73
2022/09/26 04:38:40;;;;;;;0.80;0.80;;;18.50;54.50;;;;;;5066880;28;45237;-74
2022/09/26 04:41:07;;;;;;;1.00;1.00;;;18.50;54.40;;;;;;5066875;28;45176;-73
2022/09/26 04:43:34;;;;;;;0.70;0.70;;;18.50;54.40;;;;;;5066267;28;46353;-72
2022/09/26 04:46:01;;;;;;;0.88;0.88;;;18.50;54.40;;;;;;5066252;28;45277;-73
2022/09/26 04:48:28;;;;;;;1.17;1.00;;;18.50;54.50;;;;;;5066757;28;45321;-74
2022/09/26 04:50:55;;;;;;;0.80;0.80;;;18.50;54.40;;;;;;5066809;28;45330;-74
2022/09/26 04:53:22;;;;;;;0.80;0.80;;;18.50;54.40;;;;;;5066685;28;45634;-74
2022/09/26 04:55:53;;;;;;;1.15;1.05;;;18.50;54.50;;;;;;5066304;28;45206;-74
2022/09/26 04:58:20;;;;;;;0.93;0.82;;;18.50;54.50;;;;;;5067042;28;45278;-74
2022/09/26 05:00:48;;;;;;;0.70;0.70;;;18.50;54.50;;;;;;5067019;28;45174;-74
2022/09/26 05:03:15;;;;;;;1.38;1.00;;;18.50;55.10;;;;;;5066526;28;45273;-73
2022/09/26 05:05:43;;;;;;;0.77;0.77;;;18.50;54.50;;;;;;5066543;28;45291;-73
2022/09/26 05:08:11;;;;;;;0.98;0.98;;;18.40;54.50;;;;;;5066729;28;45246;-74
2022/09/26 05:10:37;;;;;;;0.80;0.80;;;18.40;54.60;;;;;;5066616;28;45471;-74
2022/09/26 05:13:06;;;;;;;0.90;0.90;;;18.50;54.60;;;;;;5066410;28;47056;-73
2022/09/26 05:15:37;;;;;;;0.95;0.95;;;18.50;54.60;;;;;;5066273;28;45415;-73
2022/09/26 05:18:06;;;;;;;0.80;0.80;;;18.40;54.50;;;;;;5066648;28;45244;-74
2022/09/26 05:20:33;;;;;;;0.88;0.80;;;18.40;54.50;;;;;;5066730;28;45293;-74
2022/09/26 05:23:00;;;;;;;0.80;0.80;;;18.40;54.50;;;;;;5066189;28;45444;-74
2022/09/26 05:28:13;;;;;;;0.90;0.90;;;18.40;54.50;;;;;;5064014;28;45218;-73
2022/09/26 05:30:39;;;;;;;0.82;0.82;;;18.40;54.50;;;;;;5070104;28;45250;-73
2022/09/26 05:33:06;;;;;;;0.90;0.90;;;18.40;54.60;;;;;;5069936;28;45457;-73
2022/09/26 05:35:34;;;;;;;0.85;0.85;;;18.40;54.60;;;;;;5066856;28;45274;-74
2022/09/26 05:38:01;;;;;;;0.90;0.90;;;18.40;54.60;;;;;;5069177;28;45336;-74
2022/09/26 05:43:13;;;;;;;1.05;1.00;;;18.40;54.70;;;;;;5066378;28;45823;-73
2022/09/26 05:45:40;;;;;;;0.90;0.90;;;18.40;54.70;;;;;;5069660;28;45143;-73
2022/09/26 05:48:07;;;;;;;1.15;1.10;;;18.40;54.80;;;;;;5069761;28;45396;-73
2022/09/26 05:50:34;;;;;;;0.88;0.88;;;18.40;54.70;;;;;;5070153;28;45304;-74
2022/09/26 05:53:01;;;;;;;1.27;0.90;;;18.40;54.70;;;;;;5069436;28;45231;-74
2022/09/26 05:55:28;;;;;;;0.80;0.80;;;18.40;54.70;;;;;;5069574;28;45227;-74
2022/09/26 05:57:57;;;;;;;0.90;0.90;;;18.30;54.60;;;;;;5069683;28;45272;-74
2022/09/26 06:00:25;;;;;;;0.80;0.80;;;18.40;54.70;;;;;;5069740;28;45451;-73
2022/09/26 06:02:56;;;;;;;0.73;0.73;;;18.30;54.70;;;;;;5069323;28;45195;-74
2022/09/26 06:05:23;;;;;;;0.80;0.80;;;18.30;54.70;;;;;;5069451;28;45365;-73
2022/09/26 06:07:49;;;;;;;0.95;0.95;;;18.30;54.70;;;;;;5069509;28;45277;-73
2022/09/26 06:10:16;;;;;;;1.70;0.98;;;18.30;54.80;;;;;;5069461;28;45285;-73
2022/09/26 06:12:43;;;;;;;1.33;0.90;;;18.30;54.80;;;;;;5069178;28;45361;-74
2022/09/26 06:15:14;;;;;;;1.08;0.98;;;18.30;54.80;;;;;;5069020;28;45262;-74
2022/09/26 06:17:42;;;;;;;1.10;1.00;;;18.30;54.80;;;;;;5069259;28;45265;-73
2022/09/26 06:20:09;;;;;;;1.23;0.93;;;18.30;54.80;;;;;;5069409;28;45233;-73
2022/09/26 06:22:40;;;;;;;1.10;1.00;;;18.20;54.80;;;;;;5068921;28;45262;-73
2022/09/26 06:25:07;;;;;;;0.90;0.90;;;18.20;54.80;;;;;;5069070;28;45454;-74
2022/09/26 06:27:37;;;;;;;1.73;1.10;;;18.20;54.80;;;;;;5069230;28;45242;-73
2022/09/26 06:30:05;;;;;;;1.98;1.17;;;18.30;54.80;;;;;;5068747;28;45280;-73
2022/09/26 06:32:32;;;;;;;1.50;1.40;;;18.30;54.70;;;;;;5068116;28;45556;-73
2022/09/26 06:35:00;;;;;;;1.73;1.30;;;18.30;54.70;;;;;;5068652;28;45315;-73
2022/09/26 06:37:27;;;;;;;1.10;1.00;;;18.30;54.60;;;;;;5068818;28;45310;-73
2022/09/26 06:39:54;;;;;;;1.23;1.13;;;18.30;54.60;;;;;;5068777;28;45569;-73
2022/09/26 06:42:21;;;;;;;1.63;1.45;;;18.30;54.70;;;;;;5068043;28;46614;-73
2022/09/26 06:44:48;;;;;;;1.48;1.33;;;18.30;54.70;;;;;;5068735;28;45129;-73
2022/09/26 06:47:14;;;;;;;1.30;1.00;;;18.30;54.70;;;;;;5068829;28;45193;-73
2022/09/26 06:49:47;;;;;;;1.13;1.02;;;18.30;54.70;;;;;;5069039;28;45376;-74
2022/09/26 06:52:16;;;;;;;1.35;1.25;;;18.30;54.70;;;;;;5068560;28;45284;-73
2022/09/26 06:54:42;;;;;;;1.00;0.90;;;18.30;54.70;;;;;;5068517;28;45264;-74
2022/09/26 06:57:10;;;;;;;1.45;1.00;;;18.30;54.70;;;;;;5068707;28;45430;-74
2022/09/26 06:59:37;;;;;;;1.75;1.30;;;18.40;54.70;;;;;;5068988;28;45461;-75
2022/09/26 07:02:05;;;;;;;1.17;1.08;;;18.40;54.70;;;;;;5068544;28;45442;-74
2022/09/26 07:04:32;;;;;;;1.10;1.00;;;18.40;54.60;;;;;;5068494;28;45180;-74
2022/09/26 07:06:59;;;;;;;1.33;1.20;;;18.30;54.60;;;;;;5068524;28;45276;-74
2022/09/26 07:09:27;;;;;;;0.80;0.80;;;18.40;54.60;;;;;;5068708;28;45356;-74
2022/09/26 07:11:54;;;;;;;1.35;0.98;;;18.40;54.60;;;;;;5083144;28;46750;-74
2022/09/26 07:14:21;;;;;;;1.33;1.23;;;18.40;54.60;;;;;;5088617;28;45190;-74
2022/09/26 07:16:49;;;;;;;1.33;1.20;;;18.40;54.50;;;;;;5047455;28;45275;-74
2022/09/26 07:19:17;;;;;;;1.25;1.15;;;18.40;55.10;;;;;;5047742;28;45278;-74
2022/09/26 07:21:44;;;;;;;0.88;0.88;;;18.40;54.50;;;;;;5047868;28;46664;-74
2022/09/26 07:24:12;;;;;;;1.20;1.10;;;18.40;54.50;;;;;;5047848;28;45195;-74
2022/09/26 07:26:41;;;;;;;1.00;1.00;;;18.40;54.50;;;;;;5047441;28;45311;-74
2022/09/26 07:29:07;;;;;;;1.60;1.00;;;18.40;54.50;;;;;;5048256;28;45227;-74
2022/09/26 07:31:35;;;;;;;1.35;0.80;;;18.40;54.40;;;;;;5047748;28;45467;-74
2022/09/26 07:34:03;;;;;;;0.88;0.85;;;18.40;54.50;;;;;;5047742;28;45255;-74
2022/09/26 07:36:30;;;;;;;1.50;1.23;;;18.40;54.50;;;;;;5075871;28;45295;-74
2022/09/26 07:38:57;;;;;;;1.35;1.13;;;18.40;54.50;;;;;;5088389;28;45426;-74
2022/09/26 07:41:24;;;;;;;1.13;0.80;;;18.40;54.50;;;;;;5088156;28;45181;-74
2022/09/26 07:43:52;;;;;;;1.02;0.93;;;18.40;54.50;;;;;;5088036;28;45190;-74
2022/09/26 07:51:48;;;;;;;1.10;0.98;;;18.40;54.40;;;;;;5085341;28;45820;-74
2022/09/26 07:54:16;;;;;;;1.02;0.88;;;18.40;54.40;;;;;;5075032;28;45271;-74
2022/09/26 07:56:43;;;;;;;1.75;1.10;;;18.50;54.40;;;;;;5067697;28;45108;-74
2022/09/26 07:59:11;;;;;;;1.30;1.00;;;18.40;54.50;;;;;;5067957;28;45174;-74
2022/09/26 08:01:39;;;;;;;1.00;0.90;;;18.50;54.40;;;;;;5067486;28;47413;-74
2022/09/26 08:04:06;;;;;;;1.65;0.90;;;18.40;54.40;;;;;;5067496;28;45297;-74
2022/09/26 08:06:33;;;;;;;0.93;0.90;;;18.40;54.40;;;;;;5067601;28;45325;-74
2022/09/26 08:09:00;;;;;;;1.50;1.30;;;18.50;54.40;;;;;;5067768;28;45499;-74
2022/09/26 08:11:27;;;;;;;1.02;1.00;;;18.50;54.50;;;;;;5066854;28;46948;-73
2022/09/26 08:13:54;;;;;;;1.17;1.00;;;18.50;54.40;;;;;;5066553;28;45301;-74
2022/09/26 08:16:22;;;;;;;1.17;1.08;;;18.50;54.30;;;;;;5067332;28;45296;-74
2022/09/26 08:18:49;;;;;;;1.23;1.02;;;18.50;54.30;;;;;;5064933;28;45420;-74
2022/09/26 08:21:16;;;;;;;0.95;0.90;;;18.50;54.30;;;;;;5067134;28;46669;-74
2022/09/26 08:23:43;;;;;;;1.63;1.25;;;18.50;54.30;;;;;;5067128;28;45373;-74
2022/09/26 08:26:11;;;;;;;1.33;1.10;;;18.50;54.30;;;;;;5067291;28;45264;-74
2022/09/26 08:28:37;;;;;;;1.00;0.93;;;18.50;54.30;;;;;;5067510;28;45519;-74
2022/09/26 08:31:04;;;;;;;1.00;1.00;;;18.50;54.20;;;;;;5067137;28;45203;-74
2022/09/26 08:33:34;;;;;;;1.42;1.00;;;18.50;54.20;;;;;;5067105;28;45189;-74
2022/09/26 08:36:03;;;;;;;1.10;1.00;;;18.50;54.20;;;;;;5067130;28;45279;-74
2022/09/26 08:38:30;;;;;;;2.83;1.20;;;18.60;54.60;;;;;;5067204;28;45241;-74
2022/09/26 08:41:02;;;;;;;0.80;0.80;;;18.60;54.20;;;;;;5067000;28;45205;-74
2022/09/26 08:43:42;;;;;;;1.20;1.10;;;18.60;54.20;;;;;;5066993;28;45249;-74
2022/09/26 08:46:33;;;;;;;1.42;0.90;;;18.60;54.20;;;;;;5066914;28;45506;-74
2022/09/26 08:49:15;;;;;;;1.50;1.15;;;18.60;54.10;;;;;;5067099;28;45590;-74
2022/09/26 08:51:42;;;;;;;1.33;1.05;;;18.60;54.10;;;;;;5066620;28;46528;-74
2022/09/26 08:54:11;;;;;;;0.90;0.90;;;18.60;54.20;;;;;;5066782;28;45246;-74
2022/09/26 08:56:40;;;;;;;1.20;1.10;;;18.70;54.10;;;;;;5067012;28;45193;-74
2022/09/26 08:59:11;;;;;;;1.30;1.20;;;18.70;54.10;;;;;;5067018;28;45412;-74
2022/09/26 09:01:39;;;;;;;1.55;1.17;;;18.70;54.10;;;;;;5066563;28;46331;-74
2022/09/26 09:04:12;;;;;;;1.20;1.10;;;18.70;54.00;;;;;;5065956;28;45257;-74
2022/09/26 09:06:39;;;;;;;2.55;1.20;;;18.70;54.00;;;;;;5066838;28;45426;-74
2022/09/26 09:09:06;;;;;;;1.23;0.90;;;18.80;54.10;;;;;;5066880;28;45369;-74
2022/09/26 09:11:50;;;;;;;1.20;1.10;;;18.80;54.00;;;;;;5066198;28;45436;-74
2022/09/26 09:14:25;;;;;;;1.00;1.00;;;18.80;54.00;;;;;;5065121;28;45289;-75
2022/09/26 09:16:59;;;;;;;1.33;1.23;;;18.80;54.00;;;;;;5066580;28;45250;-74
2022/09/26 09:19:32;;;;;;;1.08;1.02;;;18.80;54.10;;;;;;5066605;28;45489;-74
2022/09/26 09:22:06;;;;;;;1.27;1.17;;;18.90;54.10;;;;;;5063799;28;46282;-74
2022/09/26 09:24:43;;;;;;;1.10;1.00;;;18.80;54.10;;;;;;5066417;28;45211;-74
2022/09/26 09:27:15;;;;;;;1.08;1.05;;;18.80;54.10;;;;;;5066510;28;45431;-74
2022/09/26 09:29:52;;;;;;;1.05;1.02;;;18.90;54.10;;;;;;5066725;28;45411;-74
2022/09/26 09:32:21;;;;;;;1.75;1.30;;;18.90;54.10;;;;;;5066323;28;46655;-74
2022/09/26 09:34:49;;;;;;;1.20;1.10;;;18.90;54.10;;;;;;5063657;28;45441;-75
2022/09/26 09:37:19;;;;;;;1.40;1.30;;;18.90;54.00;;;;;;5066387;28;45273;-75
2022/09/26 09:39:46;;;;;;;1.98;1.05;;;18.90;54.00;;;;;;5066627;28;45234;-73
2022/09/26 09:42:18;;;;;;;1.30;1.17;;;18.90;54.00;;;;;;5065419;28;46707;-74
2022/09/26 09:44:47;;;;;;;2.40;1.38;;;18.90;54.00;;;;;;5065555;28;45302;-75
2022/09/26 09:47:14;;;;;;;1.50;1.20;;;18.90;53.90;;;;;;5066293;28;45359;-75
2022/09/26 09:49:42;;;;;;;1.10;1.10;;;19.00;54.00;;;;;;5066380;28;45485;-74
2022/09/26 09:52:25;;;;;;;1.55;1.40;;;19.00;54.00;;;;;;5066020;28;45432;-74
2022/09/26 09:54:58;;;;;;;1.67;1.30;;;19.00;53.90;;;;;;5066110;28;45198;-74
2022/09/26 09:57:42;;;;;;;1.35;1.35;;;19.00;53.90;;;;;;5066143;28;45189;-75
2022/09/26 10:00:11;;;;;;;1.15;1.05;;;19.00;53.90;;;;;;5066350;28;45471;-75
2022/09/26 10:02:42;;;;;;;1.65;1.50;;;19.00;53.90;;;;;;5065953;28;47302;-74
2022/09/26 10:05:17;;;;;;;1.45;1.35;;;19.00;54.00;;;;;;5065953;28;45238;-75
2022/09/26 10:07:45;;;;;;;1.40;1.30;;;19.00;53.90;;;;;;5065975;28;45438;-75
2022/09/26 10:10:14;;;;;;;1.30;1.20;;;19.00;53.90;;;;;;5065866;28;45553;-75
2022/09/26 10:12:42;;;;;;;1.27;1.13;;;19.00;54.00;;;;;;5065619;28;46714;-74
2022/09/26 10:15:18;;;;;;;1.48;1.38;;;19.00;54.60;;;;;;5065744;28;45313;-75
2022/09/26 10:18:02;;;;;;;1.50;1.40;;;19.00;54.00;;;;;;5069208;28;45201;-75
2022/09/26 10:20:35;;;;;;;2.08;1.30;;;19.00;54.00;;;;;;5069453;28;45570;-75
2022/09/26 10:23:08;;;;;;;1.50;1.33;;;19.00;54.00;;;;;;5069052;28;46364;-75
2022/09/26 10:25:35;;;;;;;1.20;1.10;;;19.10;54.10;;;;;;5069049;28;45303;-75
2022/09/26 10:28:04;;;;;;;1.35;1.25;;;19.10;54.20;;;;;;5069190;28;45245;-75
2022/09/26 10:30:32;;;;;;;1.10;1.10;;;19.10;54.00;;;;;;5069298;28;45561;-75
2022/09/26 10:33:00;;;;;;;1.45;1.30;;;19.10;54.00;;;;;;5068856;28;45530;-75
2022/09/26 10:35:28;;;;;;;1.45;1.33;;;19.10;54.00;;;;;;5068760;28;45307;-75
2022/09/26 10:37:59;;;;;;;1.30;1.20;;;19.10;54.00;;;;;;5068971;28;45243;-75
2022/09/26 10:40:46;;;;;;;1.45;1.35;;;19.10;54.10;;;;;;5066534;28;45342;-75
2022/09/26 10:43:24;;;;;;;1.50;1.40;;;19.10;53.90;;;;;;5068713;28;46655;-75
2022/09/26 10:45:53;;;;;;;1.63;1.40;;;19.20;54.10;;;;;;5068813;28;45209;-75
2022/09/26 10:48:20;;;;;;;1.55;1.45;;;19.20;54.10;;;;;;5069016;28;45331;-75
2022/09/26 10:50:51;;;;;;;1.90;1.60;;;19.20;54.10;;;;;;5069070;28;45296;-75
2022/09/26 10:53:21;;;;;;;1.40;1.30;;;19.20;54.20;;;;;;5068591;28;45478;-75
2022/09/26 10:55:51;;;;;;;1.30;1.30;;;19.20;54.20;;;;;;5068627;28;45344;-75
2022/09/26 10:58:21;;;;;;;1.20;1.10;;;19.20;54.20;;;;;;5068780;28;45229;-75
2022/09/26 11:00:50;;;;;;;1.30;1.20;;;19.20;54.20;;;;;;5068894;28;45383;-75
2022/09/26 11:03:21;;;;;;;1.15;1.13;;;19.20;54.40;;;;;;5068462;28;46628;-75
2022/09/26 11:05:56;;;;;;;1.83;1.35;;;19.20;54.30;;;;;;5068487;28;45317;-75
2022/09/26 11:08:24;;;;;;;1.33;1.23;;;19.20;54.40;;;;;;5068585;28;45277;-74
2022/09/26 11:10:52;;;;;;;1.45;1.35;;;19.20;54.40;;;;;;5074684;28;45487;-75
2022/09/26 11:13:20;;;;;;;1.55;1.40;;;19.20;54.40;;;;;;5085875;28;46157;-75
2022/09/26 11:16:00;;;;;;;1.48;1.38;;;19.20;54.40;;;;;;5087891;28;45357;-75
2022/09/26 11:18:39;;;;;;;1.50;1.40;;;19.20;54.50;;;;;;5088405;28;45198;-74
2022/09/26 11:21:07;;;;;;;1.95;1.40;;;19.20;54.50;;;;;;5088793;28;45300;-74
2022/09/26 11:23:37;;;;;;;1.35;1.25;;;19.20;54.50;;;;;;5087611;28;46383;-75
2022/09/26 11:26:11;;;;;;;1.23;1.13;;;19.20;54.50;;;;;;5087840;28;45157;-74
2022/09/26 11:28:39;;;;;;;1.33;1.23;;;19.20;54.50;;;;;;5088051;28;45189;-75
2022/09/26 11:31:11;;;;;;;1.58;1.27;;;19.20;54.50;;;;;;5071692;28;45375;-75
2022/09/26 11:33:43;;;;;;;1.55;1.45;;;19.20;54.40;;;;;;5067984;28;45223;-74
2022/09/26 11:36:21;;;;;;;1.33;1.23;;;19.20;54.40;;;;;;5079446;28;45210;-75
2022/09/26 11:38:50;;;;;;;1.30;1.20;;;19.20;54.40;;;;;;5088338;28;45211;-76
2022/09/26 11:41:36;;;;;;;1.40;1.30;;;19.20;54.40;;;;;;5088370;28;45451;-75
2022/09/26 11:44:14;;;;;;;1.50;1.40;;;19.20;54.40;;;;;;5086881;28;45401;-75
2022/09/26 11:46:46;;;;;;;1.80;1.38;;;19.20;54.40;;;;;;5088118;28;45240;-74
2022/09/26 11:49:41;;;;;;;1.70;1.50;;;19.20;54.40;;;;;;5088143;28;45307;-75
2022/09/26 11:52:22;;;;;;;1.50;1.30;;;19.20;54.40;;;;;;5087576;28;45294;-75
2022/09/26 11:54:57;;;;;;;1.20;1.10;;;19.20;54.40;;;;;;5087689;28;46354;-75
2022/09/26 11:57:40;;;;;;;1.13;1.10;;;19.20;54.40;;;;;;5087199;28;45162;-75
2022/09/26 12:00:11;;;;;;;1.33;1.23;;;19.20;54.40;;;;;;5087989;28;45182;-74
2022/09/26 12:02:54;;;;;;;1.90;1.20;;;19.20;54.40;;;;;;5087789;28;45416;-76
2022/09/26 12:05:24;;;;;;;1.25;1.25;;;19.20;54.40;;;;;;5087797;28;46800;-75
2022/09/26 12:08:00;;;;;;;1.40;1.30;;;19.20;54.40;;;;;;5072144;28;45174;-74
2022/09/26 12:10:32;;;;;;;1.30;1.20;;;19.20;54.40;;;;;;5067412;28;45210;-74
2022/09/26 12:13:09;;;;;;;1.02;1.02;;;19.20;54.40;;;;;;5067167;28;45407;-74
2022/09/26 12:15:38;;;;;;;1.48;1.38;;;19.20;54.30;;;;;;5067091;28;46142;-74
2022/09/26 12:18:11;;;;;;;1.10;1.10;;;19.20;54.30;;;;;;5066544;28;45246;-75
2022/09/26 12:20:42;;;;;;;1.38;1.27;;;19.20;54.40;;;;;;5066626;28;45197;-75
2022/09/26 12:23:15;;;;;;;1.52;1.25;;;19.20;54.30;;;;;;5064908;28;45318;-75
2022/09/26 12:25:54;;;;;;;1.30;1.20;;;19.30;54.40;;;;;;5067114;28;45297;-75
2022/09/26 12:28:44;;;;;;;1.38;1.20;;;19.30;54.40;;;;;;5067308;28;45176;-74
2022/09/26 12:31:13;;;;;;;1.33;1.23;;;19.30;54.40;;;;;;5067122;28;45371;-74
2022/09/26 12:34:01;;;;;;;1.02;1.02;;;19.30;54.30;;;;;;5066850;28;45523;-75
2022/09/26 12:36:39;;;;;;;1.30;1.20;;;19.30;54.30;;;;;;5066771;28;46582;-75
2022/09/26 12:39:13;;;;;;;1.50;1.40;;;19.30;54.30;;;;;;5066421;28;45317;-75
2022/09/26 12:41:51;;;;;;;1.20;1.20;;;19.30;54.30;;;;;;5067212;28;45181;-73
2022/09/26 12:44:30;;;;;;;1.40;1.30;;;19.30;54.30;;;;;;5067331;28;45552;-76
2022/09/26 12:47:18;;;;;;;1.30;1.20;;;19.30;54.30;;;;;;5066959;28;47444;-75
2022/09/26 12:50:03;;;;;;;1.33;1.23;;;19.30;54.30;;;;;;5067152;28;45291;-75
2022/09/26 12:52:50;;;;;;;1.65;1.55;;;19.30;54.30;;;;;;5065007;28;45252;-75
2022/09/26 12:55:22;;;;;;;1.13;1.02;;;19.30;54.30;;;;;;5067035;28;45399;-75
2022/09/26 12:57:56;;;;;;;1.27;1.15;;;19.30;54.30;;;;;;5066270;28;47575;-74
2022/09/26 13:00:25;;;;;;;2.58;1.33;;;19.30;54.40;;;;;;5064834;28;45257;-74
2022/09/26 13:03:14;;;;;;;1.20;1.10;;;19.30;54.40;;;;;;5066441;28;45391;-74
2022/09/26 13:06:12;;;;;;;1.63;1.42;;;19.30;55.00;;;;;;5052832;28;45425;-74
2022/09/26 13:08:43;;;;;;;1.38;1.27;;;19.30;54.50;;;;;;5063837;28;46939;-74
2022/09/26 13:11:15;;;;;;;1.30;1.20;;;19.30;54.60;;;;;;5073204;28;45281;-74
2022/09/26 13:13:54;;;;;;;1.52;1.20;;;19.30;54.50;;;;;;5074985;28;45292;-74
2022/09/26 13:16:27;;;;;;;1.30;1.20;;;19.40;54.40;;;;;;5084011;28;45313;-74
2022/09/26 13:18:56;;;;;;;1.05;1.05;;;19.40;54.50;;;;;;5085724;28;46385;-74